createdAt,value
2019-06-20T00:02:10.650Z,20.07
2019-06-20T00:04:39.293Z,19.97
2019-06-20T00:07:07.972Z,19.86
2019-06-20T00:09:36.612Z,19.81
2019-06-20T00:12:05.324Z,19.75
2019-06-20T00:14:33.831Z,19.76
2019-06-20T00:17:02.330Z,19.69
2019-06-20T00:19:30.924Z,19.60
2019-06-20T00:21:59.486Z,19.61
2019-06-20T00:24:28.123Z,19.66
2019-06-20T00:26:56.768Z,19.92
2019-06-20T00:29:25.334Z,20.08
2019-06-20T00:31:53.870Z,20.07
2019-06-20T00:34:22.517Z,20.11
2019-06-20T00:36:51.470Z,20.09
2019-06-20T00:39:20.095Z,20.04
2019-06-20T00:41:48.660Z,20.06
2019-06-20T00:44:17.267Z,20.01
2019-06-20T00:46:45.836Z,19.94
2019-06-20T00:49:14.384Z,19.89
2019-06-20T00:51:43.023Z,19.76
2019-06-20T00:54:11.563Z,19.62
2019-06-20T00:56:40.173Z,19.56
2019-06-20T00:59:08.741Z,19.53
2019-06-20T01:01:37.364Z,19.45
2019-06-20T01:04:05.999Z,19.29
2019-06-20T01:06:34.582Z,19.34
2019-06-20T01:09:03.074Z,19.31
2019-06-20T01:11:31.687Z,19.25
2019-06-20T01:14:00.174Z,19.32
2019-06-20T01:16:28.789Z,19.37
2019-06-20T01:18:57.435Z,19.52
2019-06-20T01:21:26.006Z,19.77
2019-06-20T01:23:54.612Z,19.89
2019-06-20T01:26:23.240Z,19.92
2019-06-20T01:28:51.880Z,19.86
2019-06-20T01:31:20.515Z,19.83
2019-06-20T01:33:49.085Z,19.74
2019-06-20T01:36:17.658Z,19.61
2019-06-20T01:38:46.258Z,19.60
2019-06-20T01:41:14.826Z,19.54
2019-06-20T01:43:50.403Z,19.53
2019-06-20T01:46:13.855Z,19.41
2019-06-20T01:48:42.486Z,19.31
2019-06-20T01:51:11.256Z,19.25
2019-06-20T01:53:39.842Z,19.13
2019-06-20T01:56:08.508Z,19.04
2019-06-20T01:58:37.142Z,18.95
2019-06-20T02:01:05.926Z,18.82
2019-06-20T02:03:34.568Z,18.82
2019-06-20T02:06:03.262Z,18.85
2019-06-20T02:08:31.904Z,18.86
2019-06-20T02:11:00.551Z,18.79
2019-06-20T02:13:29.199Z,18.75
2019-06-20T02:15:57.936Z,18.77
2019-06-20T02:18:26.616Z,18.81
2019-06-20T02:20:57.650Z,18.84
2019-06-20T02:23:26.320Z,18.90
2019-06-20T02:25:55.068Z,18.90
2019-06-20T02:28:24.165Z,18.94
2019-06-20T02:30:52.821Z,18.94
2019-06-20T02:33:21.492Z,18.95
2019-06-20T02:35:50.168Z,18.94
2019-06-20T02:38:18.802Z,18.91
2019-06-20T02:40:47.487Z,18.93
2019-06-20T02:43:16.183Z,18.92
2019-06-20T02:45:44.818Z,18.91
2019-06-20T02:48:13.468Z,18.86
2019-06-20T02:50:42.207Z,18.76
2019-06-20T02:53:10.811Z,18.75
2019-06-20T02:55:39.436Z,18.79
2019-06-20T02:58:08.084Z,18.81
2019-06-20T03:00:57.142Z,18.74
2019-06-20T03:03:26.381Z,18.80
2019-06-20T03:05:55.013Z,18.82
2019-06-20T03:08:23.782Z,18.80
2019-06-20T03:10:52.425Z,18.74
2019-06-20T03:13:21.100Z,18.45
2019-06-20T03:15:50.172Z,18.35
2019-06-20T03:18:18.816Z,18.25
2019-06-20T03:20:47.527Z,18.18
2019-06-20T03:23:16.195Z,18.19
2019-06-20T03:25:44.773Z,18.39
2019-06-20T03:28:13.434Z,18.50
2019-06-20T03:30:41.934Z,18.53
2019-06-20T03:33:10.533Z,18.63
2019-06-20T03:35:39.170Z,18.71
2019-06-20T03:38:07.798Z,18.72
2019-06-20T03:40:36.449Z,18.75
2019-06-20T03:43:05.091Z,18.74
2019-06-20T03:45:34.682Z,18.85
2019-06-20T03:48:03.324Z,18.93
2019-06-20T03:50:32.066Z,19.08
2019-06-20T03:53:03.341Z,19.19
2019-06-20T03:55:33.385Z,19.25
2019-06-20T03:58:02.570Z,19.33
2019-06-20T04:00:33.582Z,19.49
2019-06-20T04:03:02.532Z,19.56
2019-06-20T04:05:31.186Z,19.63
2019-06-20T04:07:59.699Z,19.68
2019-06-20T04:10:28.379Z,19.71
2019-06-20T04:12:56.937Z,19.84
2019-06-20T04:15:25.681Z,19.97
2019-06-20T04:17:54.367Z,20.14
2019-06-20T04:20:23.001Z,20.32
2019-06-20T04:22:51.564Z,20.43
2019-06-20T04:25:20.110Z,20.50
2019-06-20T04:27:48.800Z,20.57
2019-06-20T04:30:17.542Z,20.64
2019-06-20T04:32:46.177Z,20.72
2019-06-20T04:35:14.836Z,20.82
2019-06-20T04:37:43.333Z,20.87
2019-06-20T04:40:12.633Z,21.00
2019-06-20T04:42:41.193Z,21.09
2019-06-20T04:45:35.049Z,21.16
2019-06-20T04:47:57.308Z,21.22
2019-06-20T04:50:25.907Z,21.21
2019-06-20T04:52:54.407Z,21.25
2019-06-20T04:55:23.017Z,21.33
2019-06-20T04:57:51.596Z,21.42
2019-06-20T05:00:20.229Z,21.49
2019-06-20T05:02:48.812Z,21.52
2019-06-20T05:05:17.482Z,21.58
2019-06-20T05:07:46.261Z,21.70
2019-06-20T05:10:15.349Z,21.79
2019-06-20T05:12:46.530Z,21.94
2019-06-20T05:15:15.542Z,22.08
2019-06-20T05:17:47.250Z,22.10
2019-06-20T05:20:16.256Z,22.15
2019-06-20T05:22:45.125Z,22.32
2019-06-20T05:25:14.553Z,22.39
2019-06-20T05:27:44.900Z,22.48
2019-06-20T05:30:14.062Z,22.69
2019-06-20T05:32:42.881Z,22.88
2019-06-20T05:35:11.609Z,23.04
2019-06-20T05:37:40.184Z,23.10
2019-06-20T05:40:10.521Z,23.32
2019-06-20T05:42:43.655Z,23.42
2019-06-20T05:45:15.544Z,23.43
2019-06-20T05:47:44.349Z,23.78
2019-06-20T05:50:13.280Z,24.00
2019-06-20T05:52:46.299Z,24.10
2019-06-20T05:55:16.679Z,24.24
2019-06-20T05:57:45.388Z,24.24
2019-06-20T06:03:00.954Z,24.64
2019-06-20T06:05:29.801Z,24.69
2019-06-20T06:08:00.162Z,24.79
2019-06-20T06:10:29.007Z,24.96
2019-06-20T06:12:58.628Z,25.14
2019-06-20T06:15:28.953Z,25.21
2019-06-20T06:17:57.744Z,25.31
2019-06-20T06:20:26.727Z,25.48
2019-06-20T06:22:56.993Z,25.53
2019-06-20T06:25:25.812Z,25.75
2019-06-20T06:27:56.158Z,25.84
2019-06-20T06:30:25.353Z,26.09
2019-06-20T06:32:55.846Z,26.23
2019-06-20T06:35:27.657Z,26.32
2019-06-20T06:37:56.651Z,26.52
2019-06-20T06:40:30.010Z,26.65
2019-06-20T06:43:01.747Z,26.73
2019-06-20T06:45:30.555Z,26.73
2019-06-20T06:48:02.002Z,26.86
2019-06-20T06:50:30.838Z,26.98
2019-06-20T06:53:02.609Z,27.05
2019-06-20T06:55:31.539Z,27.23
2019-06-20T06:58:00.386Z,27.32
2019-06-20T07:00:32.283Z,27.46
2019-06-20T07:03:01.171Z,27.48
2019-06-20T07:05:30.136Z,27.58
2019-06-20T07:07:58.792Z,27.70
2019-06-20T07:10:27.980Z,27.75
2019-06-20T07:12:56.636Z,27.79
2019-06-20T07:15:25.379Z,27.88
2019-06-20T07:17:54.013Z,27.95
2019-06-20T07:20:22.925Z,28.07
2019-06-20T07:22:51.715Z,28.08
2019-06-20T07:25:20.514Z,28.41
2019-06-20T07:27:50.794Z,28.53
2019-06-20T07:30:21.410Z,28.68
2019-06-20T07:32:50.334Z,28.87
2019-06-20T07:35:19.687Z,29.02
2019-06-20T07:37:48.573Z,29.25
2019-06-20T07:40:17.358Z,29.52
2019-06-20T07:42:46.117Z,29.68
2019-06-20T07:45:15.353Z,30.04
2019-06-20T07:47:46.483Z,30.41
2019-06-20T07:50:16.899Z,30.50
2019-06-20T07:53:00.829Z,30.50
2019-06-20T07:55:16.413Z,30.51
2019-06-20T07:57:48.067Z,30.66
2019-06-20T08:00:16.998Z,30.91
2019-06-20T08:02:45.801Z,30.84
2019-06-20T08:05:15.102Z,31.18
2019-06-20T08:07:43.976Z,31.72
2019-06-20T08:10:17.843Z,32.86
2019-06-20T08:12:50.790Z,34.48
2019-06-20T08:15:20.019Z,35.33
2019-06-20T08:17:52.127Z,35.45
2019-06-20T08:20:24.310Z,35.76
2019-06-20T08:22:53.172Z,35.95
2019-06-20T08:25:22.520Z,37.29
2019-06-20T08:27:54.049Z,37.60
2019-06-20T08:30:31.870Z,38.22
2019-06-20T08:33:07.575Z,38.53
2019-06-20T08:35:33.339Z,38.55
2019-06-20T08:38:03.606Z,39.00
2019-06-20T08:40:36.471Z,39.55
2019-06-20T08:43:06.326Z,39.85
2019-06-20T08:45:42.356Z,38.11
2019-06-20T08:48:11.231Z,38.36
2019-06-20T08:50:43.417Z,39.97
2019-06-20T08:53:12.178Z,40.29
2019-06-20T08:55:41.024Z,39.91
2019-06-20T08:58:09.870Z,40.84
2019-06-20T09:00:40.355Z,41.28
2019-06-20T09:03:09.133Z,42.21
2019-06-20T09:05:37.765Z,41.48
2019-06-20T09:08:11.123Z,41.17
2019-06-20T09:10:39.569Z,42.41
2019-06-20T09:13:08.529Z,43.06
2019-06-20T09:15:40.538Z,42.99
2019-06-20T09:18:09.462Z,42.58
2019-06-20T09:20:38.200Z,41.46
2019-06-20T09:23:06.828Z,42.00
2019-06-20T09:25:35.601Z,41.96
2019-06-20T09:28:05.381Z,40.87
2019-06-20T09:30:34.418Z,40.51
2019-06-20T09:33:04.217Z,42.41
2019-06-20T09:35:36.199Z,42.14
2019-06-20T09:38:05.167Z,41.72
2019-06-20T09:40:33.959Z,40.43
2019-06-20T09:43:02.993Z,42.42
2019-06-20T09:45:31.748Z,42.74
2019-06-20T09:48:00.593Z,42.89
2019-06-20T09:50:30.981Z,43.13
2019-06-20T09:52:59.656Z,43.94
2019-06-20T09:55:28.972Z,44.70
2019-06-20T09:57:58.259Z,44.20
2019-06-20T10:00:28.406Z,41.09
2019-06-20T10:02:57.812Z,43.67
2019-06-20T10:05:29.955Z,44.64
2019-06-20T10:08:01.812Z,43.90
2019-06-20T10:10:32.551Z,43.26
2019-06-20T10:13:01.346Z,42.73
2019-06-20T10:15:35.912Z,43.74
2019-06-20T10:18:04.804Z,45.14
2019-06-20T10:20:33.544Z,44.66
2019-06-20T10:23:03.926Z,44.95
2019-06-20T10:25:35.559Z,45.79
2019-06-20T10:28:05.746Z,45.00
2019-06-20T10:30:34.582Z,43.96
2019-06-20T10:33:03.376Z,44.03
2019-06-20T10:35:32.135Z,44.69
2019-06-20T10:38:00.967Z,46.08
2019-06-20T10:40:29.878Z,45.28
2019-06-20T10:43:01.671Z,44.80
2019-06-20T10:45:30.789Z,43.99
2019-06-20T10:47:59.530Z,42.83
2019-06-20T10:50:28.465Z,43.66
2019-06-20T10:52:57.263Z,43.71
2019-06-20T10:55:26.152Z,42.95
2019-06-20T10:57:54.847Z,44.01
2019-06-20T11:00:31.437Z,43.93
2019-06-20T11:02:59.124Z,45.70
2019-06-20T11:05:27.868Z,47.70
2019-06-20T11:07:56.647Z,47.71
2019-06-20T11:10:26.220Z,48.97
2019-06-20T11:12:56.296Z,48.97
2019-06-20T11:15:25.727Z,48.78
2019-06-20T11:17:56.942Z,47.11
2019-06-20T11:20:26.141Z,47.26
2019-06-20T11:22:54.900Z,48.31
2019-06-20T11:25:23.795Z,48.39
2019-06-20T11:27:52.573Z,47.60
2019-06-20T11:30:26.687Z,48.70
2019-06-20T11:32:55.500Z,48.79
2019-06-20T11:35:26.922Z,48.93
2019-06-20T11:37:58.215Z,49.83
2019-06-20T11:40:27.028Z,48.19
2019-06-20T11:42:55.814Z,47.99
2019-06-20T11:45:27.825Z,48.22
2019-06-20T11:47:56.578Z,46.78
2019-06-20T11:50:25.383Z,45.29
2019-06-20T11:52:55.982Z,45.86
2019-06-20T11:55:25.098Z,46.05
2019-06-20T11:57:54.018Z,45.23
2019-06-20T12:00:23.125Z,46.18
2019-06-20T12:02:54.674Z,46.75
2019-06-20T12:05:23.537Z,46.58
2019-06-20T12:07:52.240Z,45.44
2019-06-20T12:10:22.681Z,45.27
2019-06-20T12:12:51.380Z,42.19
2019-06-20T12:15:22.958Z,42.18
2019-06-20T12:17:51.984Z,41.14
2019-06-20T12:20:21.545Z,40.79
2019-06-20T12:22:50.759Z,43.97
2019-06-20T12:25:20.629Z,44.36
2019-06-20T12:27:53.681Z,45.72
2019-06-20T12:30:25.707Z,44.31
2019-06-20T12:32:56.424Z,42.82
2019-06-20T12:35:35.727Z,41.97
2019-06-20T12:38:04.854Z,42.08
2019-06-20T12:40:33.507Z,42.43
2019-06-20T12:43:02.283Z,43.33
2019-06-20T12:45:30.944Z,44.31
2019-06-20T12:47:59.669Z,45.41
2019-06-20T12:50:28.500Z,46.61
2019-06-20T12:52:57.242Z,47.78
2019-06-20T12:55:26.039Z,48.04
2019-06-20T12:57:54.735Z,47.77
2019-06-20T13:00:25.341Z,48.28
2019-06-20T13:02:54.017Z,47.62
2019-06-20T13:05:24.419Z,48.24
2019-06-20T13:07:53.156Z,47.92
2019-06-20T13:10:22.249Z,46.17
2019-06-20T13:12:51.606Z,47.16
2019-06-20T13:15:21.067Z,46.99
2019-06-20T13:17:49.753Z,46.94
2019-06-20T13:20:19.572Z,46.87
2019-06-20T13:22:49.553Z,46.29
2019-06-20T13:25:18.330Z,46.61
2019-06-20T13:27:47.850Z,46.70
2019-06-20T13:30:17.336Z,45.45
2019-06-20T13:32:58.316Z,46.73
2019-06-20T13:35:27.326Z,47.72
2019-06-20T13:37:56.814Z,48.07
2019-06-20T13:40:25.473Z,47.83
2019-06-20T13:42:54.845Z,48.67
2019-06-20T13:45:25.698Z,48.98
2019-06-20T13:47:54.521Z,49.54
2019-06-20T13:50:25.323Z,48.73
2019-06-20T13:52:54.079Z,48.38
2019-06-20T13:55:22.718Z,47.73
2019-06-20T14:29:36.415Z,46.11
2019-06-20T14:32:05.146Z,46.73
2019-06-20T14:34:33.784Z,46.33
2019-06-20T14:37:02.346Z,46.87
2019-06-20T14:39:34.078Z,45.12
2019-06-20T14:42:01.349Z,43.28
2019-06-20T14:44:29.915Z,42.50
2019-06-20T14:46:59.465Z,40.35
2019-06-20T14:49:28.252Z,39.09
2019-06-20T14:51:56.896Z,38.19
2019-06-20T14:54:25.501Z,35.83
2019-06-20T14:56:54.071Z,32.44
2019-06-20T14:59:22.697Z,31.04
2019-06-20T15:01:52.521Z,30.18
2019-06-20T15:04:21.351Z,29.30
2019-06-20T15:06:50.390Z,28.97
2019-06-20T15:09:19.190Z,28.61
2019-06-20T15:11:48.230Z,28.24
2019-06-20T15:14:18.001Z,28.11
2019-06-20T15:16:47.988Z,27.95
2019-06-20T15:19:16.818Z,27.38
2019-06-20T15:21:46.865Z,27.02
2019-06-20T15:24:15.691Z,26.68
2019-06-20T15:26:47.125Z,26.40
2019-06-20T15:29:14.666Z,26.27
2019-06-20T15:31:43.871Z,26.10
2019-06-20T15:34:12.659Z,25.84
2019-06-20T15:36:41.145Z,25.77
2019-06-20T15:39:09.774Z,25.90
2019-06-20T15:41:38.389Z,25.83
2019-06-20T15:44:07.043Z,25.45
2019-06-20T15:46:35.654Z,25.16
2019-06-20T15:49:15.707Z,25.07
2019-06-20T15:51:34.723Z,25.09
2019-06-20T15:54:03.349Z,25.16
2019-06-20T15:56:32.037Z,25.16
2019-06-20T15:59:00.553Z,25.23
2019-06-20T16:01:29.120Z,25.41
2019-06-20T16:03:57.694Z,25.53
2019-06-20T16:06:26.359Z,25.55
2019-06-20T16:08:54.845Z,25.72
2019-06-20T16:11:23.515Z,25.41
2019-06-20T16:13:52.083Z,25.07
2019-06-20T16:16:20.825Z,24.70
2019-06-20T16:18:49.405Z,24.33
2019-06-20T16:21:18.220Z,24.17
2019-06-20T16:23:46.846Z,24.09
2019-06-20T16:26:15.444Z,23.87
2019-06-20T16:28:44.280Z,23.76
2019-06-20T16:31:25.803Z,23.91
2019-06-20T16:33:43.223Z,24.10
2019-06-20T16:36:13.118Z,24.13
2019-06-20T16:38:41.873Z,24.13
2019-06-20T16:41:10.463Z,24.21
2019-06-20T16:43:39.057Z,24.72
2019-06-20T16:46:07.692Z,24.65
2019-06-20T16:48:36.307Z,24.36
2019-06-20T16:51:04.979Z,24.01
2019-06-20T16:53:33.690Z,23.64
2019-06-20T16:56:02.406Z,23.37
2019-06-20T16:58:31.077Z,23.13
2019-06-20T17:00:59.719Z,23.10
2019-06-20T17:03:41.101Z,23.43
2019-06-20T17:05:58.753Z,23.84
2019-06-20T17:08:27.360Z,24.08
2019-06-20T17:10:55.994Z,24.12
2019-06-20T17:13:24.669Z,24.18
2019-06-20T17:15:56.219Z,24.24
2019-06-20T17:18:24.941Z,24.13
2019-06-20T17:20:53.572Z,24.02
2019-06-20T17:23:25.112Z,23.98
2019-06-20T17:25:53.678Z,23.91
2019-06-20T17:28:22.361Z,23.84
2019-06-20T17:30:50.986Z,23.74
2019-06-20T17:33:19.652Z,23.58
2019-06-20T17:35:48.338Z,23.45
2019-06-20T17:38:16.887Z,23.30
2019-06-20T17:40:45.512Z,23.19
2019-06-20T17:43:14.110Z,23.14
2019-06-20T17:45:42.608Z,23.07
2019-06-20T17:48:11.266Z,23.11
2019-06-20T17:50:39.900Z,23.16
2019-06-20T17:53:08.576Z,23.29
2019-06-20T17:55:37.145Z,23.34
2019-06-20T17:58:05.921Z,23.27
2019-06-20T18:00:34.812Z,23.22
2019-06-20T18:03:03.445Z,23.09
2019-06-20T18:05:32.123Z,22.93
2019-06-20T18:08:14.137Z,22.74
2019-06-20T18:10:31.263Z,22.60
2019-06-20T18:12:59.833Z,22.52
2019-06-20T18:15:28.474Z,22.54
2019-06-20T18:17:57.072Z,22.61
2019-06-20T18:20:25.812Z,22.60
2019-06-20T18:22:54.410Z,22.51
2019-06-20T18:25:23.053Z,22.47
2019-06-20T18:27:51.683Z,22.45
2019-06-20T18:30:23.254Z,22.56
2019-06-20T18:32:51.912Z,22.67
2019-06-20T18:35:20.585Z,22.81
2019-06-20T18:37:51.253Z,22.87
2019-06-20T18:40:20.057Z,22.92
2019-06-20T18:42:48.621Z,22.86
2019-06-20T18:45:17.337Z,22.77
2019-06-20T18:47:46.035Z,22.65
2019-06-20T18:50:14.788Z,22.52
2019-06-20T18:52:52.185Z,22.35
2019-06-20T18:55:13.849Z,22.18
2019-06-20T18:57:42.555Z,22.04
2019-06-20T19:00:13.072Z,21.88
2019-06-20T19:02:41.844Z,21.80
2019-06-20T19:05:11.491Z,21.76
2019-06-20T19:07:40.205Z,21.75
2019-06-20T19:10:10.145Z,21.77
2019-06-20T19:12:38.792Z,21.78
2019-06-20T19:15:08.350Z,21.84
2019-06-20T19:17:37.002Z,21.86
2019-06-20T19:20:06.986Z,21.78
2019-06-20T19:22:35.671Z,21.74
2019-06-20T19:25:07.403Z,21.81
2019-06-20T19:27:45.720Z,21.90
2019-06-20T19:30:10.480Z,21.89
2019-06-20T19:32:39.196Z,21.95
2019-06-20T19:35:10.299Z,21.94
2019-06-20T19:37:39.462Z,21.88
2019-06-20T19:40:09.561Z,21.76
2019-06-20T19:42:38.308Z,21.70
2019-06-20T19:45:13.440Z,21.68
2019-06-20T19:47:42.522Z,21.65
2019-06-20T19:50:11.769Z,21.55
2019-06-20T19:52:46.984Z,21.43
2019-06-20T19:55:16.922Z,21.35
2019-06-20T19:57:45.595Z,21.33
2019-06-20T20:00:14.407Z,21.28
2019-06-20T20:02:43.090Z,21.22
2019-06-20T20:05:19.138Z,21.16
2019-06-20T20:07:42.544Z,21.00
2019-06-20T20:10:11.476Z,20.91
2019-06-20T20:12:40.116Z,20.83
2019-06-20T20:15:11.982Z,20.75
2019-06-20T20:17:40.618Z,20.66
2019-06-20T20:20:09.763Z,20.58
2019-06-20T20:22:38.403Z,20.58
2019-06-20T20:25:08.344Z,20.57
2019-06-20T20:27:39.634Z,20.57
2019-06-20T20:30:11.645Z,20.60
2019-06-20T20:32:40.407Z,20.67
2019-06-20T20:35:09.384Z,20.70
2019-06-20T20:37:37.981Z,20.73
2019-06-20T20:40:09.358Z,20.79
2019-06-20T20:42:38.075Z,20.86
2019-06-20T20:45:10.242Z,21.01
2019-06-20T20:47:38.856Z,21.16
2019-06-20T20:50:09.019Z,21.22
2019-06-20T20:52:37.655Z,21.18
2019-06-20T20:55:08.842Z,21.13
2019-06-20T20:57:37.517Z,21.04
2019-06-20T21:00:25.302Z,21.00
2019-06-20T21:02:54.335Z,21.02
2019-06-20T21:05:22.979Z,20.99
2019-06-20T21:07:51.663Z,21.02
2019-06-20T21:10:20.599Z,21.03
2019-06-20T21:12:49.282Z,21.03
2019-06-20T21:15:18.007Z,21.00
2019-06-20T21:17:46.623Z,20.91
2019-06-20T21:20:16.951Z,20.93
2019-06-20T21:22:45.643Z,20.89
2019-06-20T21:25:14.798Z,20.77
2019-06-20T21:27:43.447Z,20.69
2019-06-20T21:30:12.840Z,20.42
2019-06-20T21:32:41.501Z,20.21
2019-06-20T21:35:10.495Z,20.14
2019-06-20T21:37:39.055Z,20.10
2019-06-20T21:40:09.003Z,20.08
2019-06-20T21:42:37.566Z,20.11
2019-06-20T21:45:08.380Z,20.07
2019-06-20T21:47:37.022Z,19.98
2019-06-20T21:50:09.152Z,19.89
2019-06-20T21:52:38.217Z,19.75
2019-06-20T21:55:07.470Z,19.66
2019-06-20T21:57:36.133Z,19.60
2019-06-20T22:00:21.186Z,19.59
2019-06-20T22:02:49.870Z,19.66
2019-06-20T22:05:18.514Z,19.79
2019-06-20T22:07:47.139Z,19.89
2019-06-20T22:10:16.149Z,20.03
2019-06-20T22:12:44.756Z,20.07
2019-06-20T22:15:13.739Z,20.03
2019-06-20T22:17:42.377Z,19.90
2019-06-20T22:20:12.270Z,19.82
2019-06-20T22:22:40.839Z,19.83
2019-06-20T22:25:09.786Z,19.82
2019-06-20T22:27:38.467Z,19.80
2019-06-20T22:30:09.720Z,19.93
2019-06-20T22:32:38.247Z,20.01
2019-06-20T22:35:08.844Z,20.02
2019-06-20T22:37:37.525Z,20.04
2019-06-20T22:40:08.653Z,20.00
2019-06-20T22:42:37.328Z,20.01
2019-06-20T22:45:07.463Z,19.97
2019-06-20T22:47:36.149Z,19.97
2019-06-20T22:50:07.691Z,19.93
2019-06-20T22:52:36.255Z,19.93
2019-06-20T22:55:06.122Z,19.93
2019-06-20T22:57:34.683Z,19.90
2019-06-20T23:00:04.812Z,19.93
2019-06-20T23:02:33.455Z,20.00
2019-06-20T23:05:02.052Z,20.05
2019-06-20T23:07:30.717Z,20.06
2019-06-20T23:10:09.762Z,20.01
2019-06-20T23:12:29.634Z,19.95
2019-06-20T23:14:58.230Z,19.81
2019-06-20T23:17:26.927Z,19.84
2019-06-20T23:19:55.500Z,19.78
2019-06-20T23:22:24.122Z,19.78
2019-06-20T23:24:52.792Z,19.74
2019-06-20T23:27:21.358Z,19.64
2019-06-20T23:29:50.047Z,19.58
2019-06-20T23:32:18.670Z,19.46
2019-06-20T23:34:47.291Z,19.34
2019-06-20T23:37:16.036Z,19.29
2019-06-20T23:39:44.633Z,19.14
2019-06-20T23:42:13.329Z,19.21
2019-06-20T23:44:41.982Z,19.28
2019-06-20T23:47:10.661Z,19.26
2019-06-20T23:49:39.349Z,19.15
2019-06-20T23:52:15.659Z,18.87
2019-06-20T23:54:44.364Z,18.71
2019-06-20T23:57:12.904Z,18.57
2019-06-20T23:59:41.438Z,18.61
